createdAt,value
2023-02-24T00:00:45.873Z,-2.92
2023-02-24T00:03:52.089Z,-2.83
2023-02-24T00:06:57.562Z,-2.81
2023-02-24T00:10:01.545Z,-2.79
2023-02-24T00:13:06.367Z,-2.85
2023-02-24T00:16:18.565Z,-2.90
2023-02-24T00:19:23.174Z,-2.90
2023-02-24T00:22:28.158Z,-2.94
2023-02-24T00:25:33.305Z,-2.91
2023-02-24T00:28:37.722Z,-2.87
2023-02-24T00:31:44.908Z,-2.96
2023-02-24T00:34:50.428Z,-3.10
2023-02-24T00:37:57.973Z,-3.28
2023-02-24T00:40:55.873Z,-3.32
2023-02-24T00:43:44.828Z,-3.19
2023-02-24T00:46:38.114Z,-3.22
2023-02-24T00:49:24.830Z,-3.21
2023-02-24T00:52:23.084Z,-3.20
2023-02-24T00:55:20.333Z,-3.27
2023-02-24T00:58:25.700Z,-3.36
2023-02-24T01:01:31.465Z,-3.34
2023-02-24T01:04:35.928Z,-3.32
2023-02-24T01:07:39.467Z,-3.32
2023-02-24T01:10:42.917Z,-3.22
2023-02-24T01:13:46.983Z,-3.29
2023-02-24T01:16:53.888Z,-3.39
2023-02-24T01:19:59.856Z,-3.53
2023-02-24T01:23:05.679Z,-3.61
2023-02-24T01:26:09.602Z,-3.62
2023-02-24T01:29:07.996Z,-3.65
2023-02-24T01:32:09.699Z,-3.62
2023-02-24T01:35:16.004Z,-3.57
2023-02-24T01:38:21.286Z,-3.48
2023-02-24T01:41:27.247Z,-3.43
2023-02-24T01:44:36.576Z,-3.56
2023-02-24T01:47:40.450Z,-3.60
2023-02-24T01:50:45.004Z,-3.56
2023-02-24T01:53:50.295Z,-3.64
2023-02-24T01:56:54.545Z,-3.64
2023-02-24T02:00:01.215Z,-3.65
2023-02-24T02:03:11.111Z,-3.64
2023-02-24T02:06:17.771Z,-3.71
2023-02-24T02:09:23.949Z,-3.76
2023-02-24T02:12:29.179Z,-3.86
2023-02-24T02:15:34.453Z,-3.88
2023-02-24T02:18:44.547Z,-3.94
2023-02-24T02:22:24.330Z,-3.88
2023-02-24T02:25:40.431Z,-3.83
2023-02-24T02:29:13.770Z,-3.92
2023-02-24T02:32:22.179Z,-3.93
2023-02-24T02:35:30.868Z,-3.93
2023-02-24T02:38:44.265Z,-3.96
2023-02-24T02:41:51.181Z,-4.01
2023-02-24T02:45:02.712Z,-4.02
2023-02-24T02:48:18.358Z,-3.95
2023-02-24T02:51:25.173Z,-3.92
2023-02-24T02:54:34.194Z,-3.94
2023-02-24T02:57:44.800Z,-3.89
2023-02-24T03:00:59.228Z,-3.93
2023-02-24T03:04:11.795Z,-3.84
2023-02-24T03:07:16.610Z,-3.74
2023-02-24T03:10:25.714Z,-3.74
2023-02-24T03:13:32.582Z,-3.88
2023-02-24T03:16:38.124Z,-3.85
2023-02-24T03:19:47.039Z,-3.84
2023-02-24T03:22:57.553Z,-3.84
2023-02-24T03:26:24.187Z,-3.86
2023-02-24T03:29:39.656Z,-3.83
2023-02-24T03:32:49.498Z,-3.75
2023-02-24T03:35:57.528Z,-3.68
2023-02-24T03:39:01.372Z,-3.70
2023-02-24T03:42:13.538Z,-3.74
2023-02-24T03:45:18.639Z,-3.61
2023-02-24T03:48:24.306Z,-3.47
2023-02-24T03:51:31.221Z,-3.44
2023-02-24T03:54:49.380Z,-3.45
2023-02-24T03:58:13.657Z,-3.36
2023-02-24T04:01:51.422Z,-3.44
2023-02-24T04:05:04.186Z,-3.39
2023-02-24T04:08:19.814Z,-3.44
2023-02-24T04:11:29.318Z,-3.56
2023-02-24T04:14:54.567Z,-3.52
2023-02-24T04:18:02.039Z,-3.45
2023-02-24T04:21:09.097Z,-3.61
2023-02-24T04:24:17.472Z,-3.60
2023-02-24T04:27:17.910Z,-3.73
2023-02-24T04:30:24.576Z,-3.76
2023-02-24T04:33:29.174Z,-3.75
2023-02-24T04:36:35.508Z,-3.79
2023-02-24T04:39:40.151Z,-3.83
2023-02-24T04:42:53.139Z,-3.95
2023-02-24T04:49:29.901Z,-3.89
2023-02-24T04:52:35.186Z,-3.83
2023-02-24T04:55:40.960Z,-3.65
2023-02-24T04:58:46.758Z,-3.79
2023-02-24T05:01:52.719Z,-3.71
2023-02-24T05:04:59.807Z,-3.57
2023-02-24T05:08:04.445Z,-3.54
2023-02-24T05:11:13.076Z,-3.49
2023-02-24T05:14:17.568Z,-3.38
2023-02-24T05:17:22.640Z,-3.32
2023-02-24T05:20:44.693Z,-3.25
2023-02-24T05:23:55.076Z,-3.15
2023-02-24T05:26:57.885Z,-3.03
2023-02-24T05:30:02.111Z,-2.93
2023-02-24T05:33:06.385Z,-2.79
2023-02-24T05:36:11.198Z,-2.82
2023-02-24T05:39:21.230Z,-2.77
2023-02-24T05:42:26.392Z,-2.63
2023-02-24T05:45:32.990Z,-2.61
2023-02-24T05:48:39.644Z,-2.42
2023-02-24T05:51:49.249Z,-2.36
2023-02-24T05:54:57.824Z,-2.27
2023-02-24T05:58:03.315Z,-2.12
2023-02-24T06:01:12.268Z,-2.06
2023-02-24T06:04:22.172Z,-1.95
2023-02-24T06:07:33.132Z,-1.87
2023-02-24T06:10:40.342Z,-1.73
2023-02-24T06:13:45.072Z,-1.53
2023-02-24T06:16:54.925Z,-1.53
2023-02-24T06:20:00.605Z,-1.38
2023-02-24T06:23:05.032Z,-1.05
2023-02-24T06:26:15.758Z,-1.21
2023-02-24T06:29:21.688Z,-1.11
2023-02-24T06:32:26.064Z,-1.07
2023-02-24T06:35:32.192Z,-0.91
2023-02-24T06:38:37.718Z,-0.82
2023-02-24T06:41:37.078Z,-0.78
2023-02-24T06:44:41.811Z,-0.66
2023-02-24T06:47:46.267Z,-0.47
2023-02-24T06:50:50.755Z,-0.29
2023-02-24T06:53:56.795Z,-0.09
2023-02-24T06:57:02.378Z,0.05
2023-02-24T07:00:19.403Z,0.26
2023-02-24T07:03:27.149Z,0.63
2023-02-24T07:06:32.318Z,0.75
2023-02-24T07:09:38.797Z,0.89
2023-02-24T07:12:44.121Z,1.01
2023-02-24T07:15:51.900Z,0.94
2023-02-24T07:18:57.277Z,0.99
2023-02-24T07:22:05.653Z,0.89
2023-02-24T07:25:13.790Z,0.86
2023-02-24T07:28:18.886Z,1.15
2023-02-24T07:31:26.596Z,1.33
2023-02-24T07:34:31.586Z,1.43
2023-02-24T07:37:38.262Z,1.51
2023-02-24T07:40:47.391Z,1.56
2023-02-24T07:43:52.499Z,1.60
2023-02-24T07:46:56.619Z,1.50
2023-02-24T07:50:01.761Z,1.43
2023-02-24T07:53:08.182Z,1.49
2023-02-24T07:56:13.188Z,1.59
2023-02-24T07:59:21.292Z,1.77
2023-02-24T08:02:25.997Z,1.78
2023-02-24T08:05:32.829Z,1.87
2023-02-24T08:08:38.151Z,1.98
2023-02-24T08:11:46.414Z,2.02
2023-02-24T08:14:52.817Z,1.94
2023-02-24T08:17:58.383Z,2.07
2023-02-24T08:21:04.886Z,2.18
2023-02-24T08:24:09.707Z,2.34
2023-02-24T08:27:14.277Z,2.23
2023-02-24T08:30:14.576Z,2.13
2023-02-24T08:33:25.017Z,1.91
2023-02-24T08:36:33.207Z,2.00
2023-02-24T08:39:42.688Z,2.27
2023-02-24T08:42:46.088Z,2.00
2023-02-24T08:45:52.860Z,2.04
2023-02-24T08:49:12.130Z,2.20
2023-02-24T08:52:19.385Z,2.18
2023-02-24T08:55:26.854Z,2.15
2023-02-24T08:58:26.915Z,2.15
2023-02-24T09:01:16.163Z,2.15
2023-02-24T09:04:16.258Z,2.63
2023-02-24T09:07:11.305Z,2.80
2023-02-24T09:09:57.114Z,2.87
2023-02-24T09:12:56.657Z,2.55
2023-02-24T09:16:00.144Z,2.50
2023-02-24T09:19:16.423Z,2.55
2023-02-24T09:22:25.827Z,2.61
2023-02-24T09:25:32.321Z,2.50
2023-02-24T09:28:39.528Z,2.42
2023-02-24T09:31:47.814Z,2.48
2023-02-24T09:34:56.972Z,2.39
2023-02-24T09:38:03.797Z,2.36
2023-02-24T09:41:18.341Z,2.50
2023-02-24T09:44:21.128Z,2.69
2023-02-24T09:47:40.558Z,2.85
2023-02-24T09:51:03.405Z,2.83
2023-02-24T09:54:08.411Z,2.89
2023-02-24T09:57:15.295Z,3.04
2023-02-24T10:00:26.717Z,3.04
2023-02-24T10:03:52.606Z,3.17
2023-02-24T10:07:02.064Z,3.21
2023-02-24T10:10:12.326Z,3.32
2023-02-24T10:13:27.682Z,3.36
2023-02-24T10:16:36.541Z,3.41
2023-02-24T10:19:43.358Z,3.35
2023-02-24T10:23:04.135Z,3.48
2023-02-24T10:26:31.645Z,3.45
2023-02-24T10:30:11.358Z,3.63
2023-02-24T10:33:16.948Z,3.75
2023-02-24T10:36:24.438Z,3.89
2023-02-24T10:39:35.092Z,4.11
2023-02-24T10:42:44.247Z,4.26
2023-02-24T10:45:52.769Z,4.35
2023-02-24T10:49:09.394Z,4.31
2023-02-24T10:52:15.890Z,4.34
2023-02-24T10:55:39.618Z,4.40
2023-02-24T10:58:49.237Z,4.50
2023-02-24T11:02:03.638Z,4.59
2023-02-24T11:05:11.630Z,4.67
2023-02-24T11:08:45.170Z,4.62
2023-02-24T11:12:03.130Z,4.70
2023-02-24T11:15:27.427Z,4.79
2023-02-24T11:18:36.820Z,4.80
2023-02-24T11:21:42.778Z,4.76
2023-02-24T11:24:46.643Z,4.65
2023-02-24T11:27:52.906Z,4.72
2023-02-24T11:31:28.440Z,4.90
2023-02-24T11:34:56.637Z,4.90
2023-02-24T11:38:16.827Z,4.90
2023-02-24T11:41:26.649Z,5.09
2023-02-24T11:44:43.116Z,5.18
2023-02-24T11:47:59.546Z,5.34
2023-02-24T11:51:09.465Z,5.24
2023-02-24T11:54:25.213Z,5.32
2023-02-24T11:57:27.620Z,5.42
2023-02-24T12:00:32.681Z,5.32
2023-02-24T12:03:44.167Z,5.44
2023-02-24T12:06:53.016Z,5.20
2023-02-24T12:10:17.244Z,5.13
2023-02-24T12:13:31.739Z,5.20
2023-02-24T12:16:52.682Z,5.43
2023-02-24T12:20:21.826Z,5.40
2023-02-24T12:23:47.928Z,5.34
2023-02-24T12:27:07.784Z,5.49
2023-02-24T12:30:20.632Z,5.56
2023-02-24T12:33:42.878Z,5.57
2023-02-24T12:36:57.130Z,5.56
2023-02-24T12:40:04.524Z,5.49
2023-02-24T12:43:13.625Z,5.49
2023-02-24T12:46:25.310Z,5.58
2023-02-24T12:49:45.449Z,5.54
2023-02-24T12:53:14.906Z,5.53
2023-02-24T12:56:37.495Z,5.55
2023-02-24T12:59:44.238Z,5.52
2023-02-24T13:03:17.959Z,5.44
2023-02-24T13:06:48.652Z,5.31
2023-02-24T13:10:00.716Z,5.25
2023-02-24T13:13:15.073Z,5.16
2023-02-24T13:16:25.300Z,5.08
2023-02-24T13:19:36.250Z,5.11
2023-02-24T13:22:45.248Z,5.14
2023-02-24T13:25:50.691Z,5.06
2023-02-24T13:28:55.973Z,5.04
2023-02-24T13:32:06.225Z,5.08
2023-02-24T13:35:13.662Z,5.11
2023-02-24T13:38:39.360Z,5.11
2023-02-24T13:41:48.311Z,5.14
2023-02-24T13:44:52.850Z,4.98
2023-02-24T13:48:04.219Z,4.92
2023-02-24T13:51:19.723Z,4.82
2023-02-24T13:54:35.558Z,4.78
2023-02-24T13:58:00.237Z,4.74
2023-02-24T14:01:14.406Z,4.83
2023-02-24T14:04:32.238Z,4.71
2023-02-24T14:07:39.397Z,4.61
2023-02-24T14:10:46.043Z,4.57
2023-02-24T14:13:50.575Z,4.50
2023-02-24T14:16:55.456Z,4.44
2023-02-24T14:19:59.992Z,4.40
2023-02-24T14:23:08.156Z,4.33
2023-02-24T14:26:19.327Z,4.19
2023-02-24T14:29:24.081Z,4.09
2023-02-24T14:32:36.797Z,4.02
2023-02-24T14:35:48.648Z,4.09
2023-02-24T14:38:55.170Z,4.06
2023-02-24T14:42:00.496Z,4.01
2023-02-24T14:45:07.103Z,3.90
2023-02-24T14:48:14.195Z,3.82
2023-02-24T14:51:28.804Z,3.74
2023-02-24T14:54:37.092Z,3.62
2023-02-24T14:57:47.188Z,3.57
2023-02-24T15:00:55.069Z,3.48
2023-02-24T15:04:10.887Z,3.50
2023-02-24T15:07:17.783Z,3.28
2023-02-24T15:10:25.748Z,3.33
2023-02-24T15:13:32.908Z,3.38
2023-02-24T15:16:45.955Z,3.26
2023-02-24T15:19:47.043Z,3.12
2023-02-24T15:22:53.084Z,3.10
2023-02-24T15:25:59.654Z,3.15
2023-02-24T15:29:03.822Z,3.13
2023-02-24T15:32:08.628Z,3.06
2023-02-24T15:35:11.817Z,2.95
2023-02-24T15:38:18.718Z,2.97
2023-02-24T15:41:24.347Z,2.87
2023-02-24T15:44:43.758Z,3.00
2023-02-24T15:48:00.440Z,2.80
2023-02-24T15:51:06.238Z,3.06
2023-02-24T15:54:12.733Z,2.90
2023-02-24T15:57:20.471Z,2.87
2023-02-24T16:00:30.075Z,2.92
2023-02-24T16:03:35.755Z,2.98
2023-02-24T16:06:43.509Z,2.97
2023-02-24T16:09:51.965Z,2.98
2023-02-24T16:13:02.305Z,2.92
2023-02-24T16:16:06.870Z,2.95
2023-02-24T16:19:11.830Z,3.00
2023-02-24T16:22:16.152Z,3.04
2023-02-24T16:25:21.930Z,2.98
2023-02-24T16:28:28.891Z,2.87
2023-02-24T16:31:35.773Z,2.81
2023-02-24T16:34:40.369Z,2.76
2023-02-24T16:37:45.271Z,2.71
2023-02-24T16:40:50.375Z,2.76
2023-02-24T16:43:56.451Z,2.66
2023-02-24T16:47:01.803Z,2.76
2023-02-24T16:50:06.678Z,2.70
2023-02-24T16:53:12.947Z,2.53
2023-02-24T16:56:18.607Z,2.57
2023-02-24T16:59:23.686Z,2.69
2023-02-24T17:02:31.408Z,2.61
2023-02-24T17:05:38.492Z,2.64
2023-02-24T17:08:37.694Z,2.63
2023-02-24T17:11:27.957Z,2.55
2023-02-24T17:14:24.677Z,2.57
2023-02-24T17:17:11.903Z,2.56
2023-02-24T17:20:04.732Z,2.53
2023-02-24T17:22:50.697Z,2.53
2023-02-24T17:25:43.409Z,2.50
2023-02-24T17:28:29.102Z,2.41
2023-02-24T17:31:21.145Z,2.43
2023-02-24T17:34:07.609Z,2.46
2023-02-24T17:37:02.461Z,2.36
2023-02-24T17:40:06.767Z,2.48
2023-02-24T17:43:11.349Z,2.52
2023-02-24T17:46:16.827Z,2.59
2023-02-24T17:49:20.986Z,2.48
2023-02-24T17:52:26.170Z,2.60
2023-02-24T17:55:31.925Z,2.62
2023-02-24T17:58:37.104Z,2.65
2023-02-24T18:01:42.690Z,2.46
2023-02-24T18:04:47.420Z,2.46
2023-02-24T18:07:55.738Z,2.39
2023-02-24T18:10:59.788Z,2.22
2023-02-24T18:14:00.532Z,2.15
2023-02-24T18:17:04.554Z,2.15
2023-02-24T18:20:08.793Z,2.17
2023-02-24T18:23:13.812Z,2.15
2023-02-24T18:26:18.156Z,1.96
2023-02-24T18:29:17.277Z,1.95
2023-02-24T18:32:22.439Z,2.05
2023-02-24T18:35:28.311Z,2.12
2023-02-24T18:38:33.573Z,2.02
2023-02-24T18:41:39.123Z,1.99
2023-02-24T18:44:43.452Z,2.08
2023-02-24T18:47:48.436Z,2.04
2023-02-24T18:50:53.804Z,2.07
2023-02-24T18:53:58.890Z,2.10
2023-02-24T18:57:02.908Z,1.95
2023-02-24T19:00:09.222Z,1.98
2023-02-24T19:03:13.583Z,2.14
2023-02-24T19:06:17.906Z,2.10
2023-02-24T19:09:26.038Z,2.09
2023-02-24T19:12:31.039Z,2.23
2023-02-24T19:15:36.005Z,2.32
2023-02-24T19:18:41.962Z,2.37
2023-02-24T19:21:46.856Z,2.30
2023-02-24T19:24:52.132Z,2.12
2023-02-24T19:27:57.696Z,2.26
2023-02-24T19:31:02.882Z,2.23
2023-02-24T19:34:08.743Z,2.33
2023-02-24T19:37:13.097Z,2.34
2023-02-24T19:40:19.080Z,2.30
2023-02-24T19:43:23.603Z,2.36
2023-02-24T19:46:30.042Z,2.14
2023-02-24T19:49:34.355Z,2.19
2023-02-24T19:52:38.801Z,2.18
2023-02-24T19:55:43.462Z,2.19
2023-02-24T19:58:48.324Z,1.94
2023-02-24T20:01:53.334Z,1.85
2023-02-24T20:05:00.825Z,1.85
2023-02-24T20:08:06.565Z,1.85
2023-02-24T20:11:14.789Z,1.91
2023-02-24T20:14:20.724Z,1.97
2023-02-24T20:17:28.569Z,2.07
2023-02-24T20:20:32.156Z,2.08
2023-02-24T20:23:36.667Z,2.17
2023-02-24T20:26:40.948Z,2.23
2023-02-24T20:29:39.539Z,2.23
2023-02-24T20:32:44.691Z,2.39
2023-02-24T20:35:53.361Z,2.42
2023-02-24T20:38:59.275Z,2.38
2023-02-24T20:42:04.772Z,2.32
2023-02-24T20:45:09.154Z,2.29
2023-02-24T20:48:13.679Z,2.43
2023-02-24T20:51:20.896Z,2.62
2023-02-24T20:54:25.580Z,2.60
2023-02-24T20:57:29.780Z,2.58
2023-02-24T21:00:34.450Z,2.78
2023-02-24T21:03:40.100Z,2.95
2023-02-24T21:06:44.118Z,3.01
2023-02-24T21:09:48.631Z,2.97
2023-02-24T21:12:56.722Z,3.06
2023-02-24T21:16:07.540Z,2.87
2023-02-24T21:19:12.577Z,2.83
2023-02-24T21:22:19.049Z,2.92
2023-02-24T21:25:25.332Z,2.98
2023-02-24T21:28:28.654Z,2.89
2023-02-24T21:31:33.273Z,2.73
2023-02-24T21:34:37.126Z,2.92
2023-02-24T21:37:42.238Z,2.89
2023-02-24T21:40:47.468Z,2.97
2023-02-24T21:43:55.430Z,2.97
2023-02-24T21:47:02.184Z,3.02
2023-02-24T21:50:07.030Z,3.15
2023-02-24T21:53:13.530Z,3.32
2023-02-24T21:56:22.732Z,3.23
2023-02-24T21:59:27.242Z,3.36
2023-02-24T22:02:31.039Z,3.38
2023-02-24T22:05:37.352Z,3.53
2023-02-24T22:08:43.593Z,3.32
2023-02-24T22:11:50.222Z,3.56
2023-02-24T22:14:54.630Z,3.43
2023-02-24T22:18:00.031Z,3.23
2023-02-24T22:21:05.003Z,3.30
2023-02-24T22:24:15.075Z,3.54
2023-02-24T22:27:19.617Z,3.44
2023-02-24T22:30:24.944Z,3.51
2023-02-24T22:33:28.696Z,3.56
2023-02-24T22:36:36.507Z,3.50
2023-02-24T22:39:41.466Z,3.47
2023-02-24T22:42:45.702Z,3.47
2023-02-24T22:45:49.950Z,3.50
2023-02-24T22:48:54.556Z,3.65
2023-02-24T22:51:53.853Z,3.62
2023-02-24T22:54:47.707Z,3.66
2023-02-24T22:57:54.501Z,3.53
2023-02-24T23:00:51.852Z,3.48
2023-02-24T23:03:59.868Z,3.37
2023-02-24T23:07:03.998Z,3.42
2023-02-24T23:10:02.328Z,3.37
2023-02-24T23:12:55.252Z,3.54
2023-02-24T23:16:02.879Z,3.62
2023-02-24T23:19:07.995Z,3.61
2023-02-24T23:22:15.149Z,3.67
2023-02-24T23:25:23.311Z,3.49
2023-02-24T23:28:28.269Z,3.58
2023-02-24T23:31:34.918Z,3.79
2023-02-24T23:34:40.833Z,3.76
2023-02-24T23:37:45.782Z,3.43
2023-02-24T23:40:58.553Z,3.58
2023-02-24T23:44:03.629Z,3.40
2023-02-24T23:47:08.082Z,3.33
2023-02-24T23:50:12.865Z,3.20
2023-02-24T23:53:19.529Z,3.38
2023-02-24T23:56:29.244Z,3.29
2023-02-24T23:59:34.077Z,3.28
